createdAt,value
2023-10-09T00:00:45.671Z,150141.72
2023-10-09T00:02:47.173Z,150111.50
2023-10-09T00:04:48.721Z,150130.38
2023-10-09T00:06:50.574Z,150066.22
2023-10-09T00:08:52.194Z,150144.25
2023-10-09T00:10:53.813Z,150146.72
2023-10-09T00:12:55.423Z,150105.25
2023-10-09T00:14:57.700Z,150104.00
2023-10-09T00:16:59.252Z,150072.53
2023-10-09T00:19:05.049Z,150067.47
2023-10-09T00:21:06.693Z,150063.75
2023-10-09T00:23:08.148Z,150076.31
2023-10-09T00:25:09.667Z,150051.13
2023-10-09T00:27:11.392Z,150024.72
2023-10-09T00:29:17.271Z,150027.22
2023-10-09T00:31:21.786Z,150061.22
2023-10-09T00:33:23.568Z,150056.19
2023-10-09T00:35:25.104Z,150015.94
2023-10-09T00:37:26.598Z,150023.50
2023-10-09T00:39:28.141Z,150029.75
2023-10-09T00:41:29.686Z,150014.69
2023-10-09T00:43:31.402Z,149974.44
2023-10-09T00:45:34.251Z,150014.69
2023-10-09T00:47:36.487Z,150000.88
2023-10-09T00:49:39.483Z,150004.59
2023-10-09T00:51:49.323Z,150008.38
2023-10-09T00:53:56.683Z,150033.53
2023-10-09T00:56:01.655Z,149995.81
2023-10-09T00:58:04.298Z,150020.97
2023-10-09T01:00:06.242Z,150008.38
2023-10-09T01:02:07.757Z,150044.84
2023-10-09T01:04:09.337Z,150018.47
2023-10-09T01:06:12.464Z,150039.84
2023-10-09T01:08:13.979Z,150033.53
2023-10-09T01:10:15.801Z,150024.72
2023-10-09T01:12:17.314Z,150048.63
2023-10-09T01:14:18.791Z,150071.25
2023-10-09T01:16:22.201Z,150046.09
2023-10-09T01:18:24.112Z,150039.84
2023-10-09T01:20:26.181Z,150078.81
2023-10-09T01:22:27.598Z,150031.03
2023-10-09T01:24:29.162Z,150052.41
2023-10-09T01:26:41.438Z,150092.66
2023-10-09T01:28:42.968Z,150066.22
2023-10-09T01:30:44.445Z,150047.38
2023-10-09T01:32:45.953Z,150073.78
2023-10-09T01:34:47.533Z,150071.25
2023-10-09T01:36:49.052Z,150088.88
2023-10-09T01:38:50.485Z,150076.31
2023-10-09T01:40:51.914Z,150063.75
2023-10-09T01:42:53.403Z,150104.00
2023-10-09T01:44:54.887Z,150081.34
2023-10-09T01:46:56.378Z,150098.94
2023-10-09T01:48:58.034Z,150082.63
2023-10-09T01:50:59.533Z,150077.56
2023-10-09T01:53:01.146Z,150091.38
2023-10-09T01:55:02.737Z,150083.88
2023-10-09T01:57:09.153Z,150116.56
2023-10-09T01:59:10.811Z,150051.13
2023-10-09T02:01:12.415Z,150057.44
2023-10-09T02:03:13.939Z,150051.13
2023-10-09T02:05:15.606Z,149998.34
2023-10-09T02:07:17.250Z,149988.25
2023-10-09T02:09:18.733Z,150051.13
2023-10-09T02:11:20.391Z,150058.72
2023-10-09T02:13:21.898Z,150056.19
2023-10-09T02:15:23.354Z,150073.78
2023-10-09T02:17:24.971Z,150054.91
2023-10-09T02:19:26.564Z,150057.44
2023-10-09T02:21:28.053Z,150049.88
2023-10-09T02:23:30.634Z,150088.88
2023-10-09T02:25:32.262Z,150033.53
2023-10-09T02:27:33.714Z,150100.22
2023-10-09T02:29:35.186Z,150096.44
2023-10-09T02:31:37.852Z,150100.22
2023-10-09T02:33:39.945Z,150098.94
2023-10-09T02:35:41.404Z,150078.81
2023-10-09T02:37:43.399Z,150109.00
2023-10-09T02:39:44.896Z,150088.88
2023-10-09T02:41:46.442Z,150070.00
2023-10-09T02:43:48.070Z,150092.66
2023-10-09T02:45:49.522Z,150102.75
2023-10-09T02:47:51.242Z,150102.75
2023-10-09T02:49:53.253Z,150087.59
2023-10-09T02:51:54.699Z,150097.69
2023-10-09T02:54:05.401Z,150081.34
2023-10-09T02:56:07.091Z,150101.47
2023-10-09T02:58:08.530Z,150130.38
2023-10-09T03:00:10.513Z,150091.38
2023-10-09T03:02:12.835Z,150119.06
2023-10-09T03:04:14.573Z,150109.00
2023-10-09T03:06:16.720Z,150106.47
2023-10-09T03:08:18.456Z,150064.97
2023-10-09T03:10:20.002Z,150105.25
2023-10-09T03:12:21.469Z,150132.91
2023-10-09T03:14:23.731Z,150073.78
2023-10-09T03:16:25.167Z,150106.47
2023-10-09T03:18:26.629Z,150101.47
2023-10-09T03:20:28.521Z,150088.88
2023-10-09T03:22:29.983Z,150083.88
2023-10-09T03:24:31.562Z,150095.16
2023-10-09T03:26:33.607Z,150093.91
2023-10-09T03:28:35.200Z,150100.22
2023-10-09T03:30:45.545Z,150115.31
2023-10-09T03:32:47.310Z,150106.47
2023-10-09T03:34:48.773Z,150119.06
2023-10-09T03:36:50.929Z,150100.22
2023-10-09T03:38:53.625Z,150115.31
2023-10-09T03:40:55.046Z,150121.59
2023-10-09T03:42:56.524Z,150107.72
2023-10-09T03:44:58.495Z,150082.63
2023-10-09T03:47:00.084Z,150037.31
2023-10-09T03:49:01.548Z,150076.31
2023-10-09T03:51:03.569Z,150041.09
2023-10-09T03:53:06.455Z,150100.22
2023-10-09T03:55:08.279Z,150109.00
2023-10-09T03:57:10.218Z,150120.34
2023-10-09T03:59:11.667Z,150119.06
2023-10-09T04:01:15.226Z,150124.13
2023-10-09T04:03:17.509Z,150109.00
2023-10-09T04:05:19.299Z,150112.78
2023-10-09T04:07:20.759Z,150131.63
2023-10-09T04:09:22.435Z,150110.25
2023-10-09T04:11:23.978Z,150131.63
2023-10-09T04:13:25.497Z,150092.66
2023-10-09T04:15:27.705Z,150126.59
2023-10-09T04:17:29.149Z,150140.47
2023-10-09T04:19:30.890Z,150111.50
2023-10-09T04:21:32.392Z,150129.13
2023-10-09T04:23:33.940Z,150129.13
2023-10-09T04:25:35.385Z,150158.06
2023-10-09T04:27:36.945Z,150183.25
2023-10-09T04:29:38.472Z,150198.34
2023-10-09T04:31:39.916Z,150175.69
2023-10-09T04:33:41.377Z,150185.78
2023-10-09T04:35:42.819Z,150207.16
2023-10-09T04:37:44.240Z,150194.56
2023-10-09T04:39:45.824Z,150204.66
2023-10-09T04:41:47.241Z,150193.28
2023-10-09T04:43:49.058Z,150195.81
2023-10-09T04:45:50.576Z,150202.13
2023-10-09T04:47:52.027Z,150247.44
2023-10-09T04:49:53.534Z,150267.56
2023-10-09T04:51:55.459Z,150233.56
2023-10-09T04:53:56.896Z,150251.16
2023-10-09T04:55:58.351Z,150244.91
2023-10-09T04:58:01.961Z,150234.81
2023-10-09T05:00:04.727Z,150271.31
2023-10-09T05:02:06.184Z,150276.34
2023-10-09T05:04:07.892Z,150265.03
2023-10-09T05:06:13.349Z,150236.09
2023-10-09T05:08:16.285Z,150267.56
2023-10-09T05:10:17.842Z,150243.66
2023-10-09T05:12:19.322Z,150226.03
2023-10-09T05:14:21.910Z,150224.78
2023-10-09T05:16:23.544Z,150256.22
2023-10-09T05:18:25.041Z,150292.72
2023-10-09T05:20:26.510Z,150288.97
2023-10-09T05:22:27.958Z,150272.56
2023-10-09T05:24:29.462Z,150282.66
2023-10-09T05:26:30.933Z,150326.72
2023-10-09T05:28:32.783Z,150292.72
2023-10-09T05:30:34.428Z,150334.25
2023-10-09T05:32:35.876Z,150343.06
2023-10-09T05:34:37.563Z,150322.94
2023-10-09T05:36:39.020Z,150316.63
2023-10-09T05:38:40.468Z,150338.03
2023-10-09T05:40:43.900Z,150320.41
2023-10-09T05:42:48.321Z,150312.84
2023-10-09T05:44:49.756Z,150307.84
2023-10-09T05:46:51.174Z,150315.38
2023-10-09T05:48:52.694Z,150364.47
2023-10-09T05:50:54.184Z,150354.38
2023-10-09T05:52:57.658Z,150385.88
2023-10-09T05:54:59.791Z,150400.97
2023-10-09T05:57:01.310Z,150403.50
2023-10-09T05:59:02.899Z,150380.84
2023-10-09T06:01:04.370Z,150429.97
2023-10-09T06:03:05.937Z,150393.41
2023-10-09T06:05:07.890Z,150457.63
2023-10-09T06:07:09.370Z,150496.72
2023-10-09T06:09:11.127Z,150476.53
2023-10-09T06:11:13.746Z,150481.63
2023-10-09T06:13:15.192Z,150453.84
2023-10-09T06:15:17.132Z,150486.66
2023-10-09T06:17:18.618Z,150474.03
2023-10-09T06:19:20.159Z,150504.31
2023-10-09T06:21:22.571Z,150506.81
2023-10-09T06:23:24.112Z,150501.78
2023-10-09T06:25:25.584Z,150471.53
2023-10-09T06:27:27.060Z,150504.31
2023-10-09T06:29:31.886Z,150461.44
2023-10-09T06:31:34.759Z,150494.25
2023-10-09T06:33:36.275Z,150520.66
2023-10-09T06:35:37.823Z,150569.81
2023-10-09T06:37:39.253Z,150574.88
2023-10-09T06:39:40.770Z,150577.34
2023-10-09T06:41:42.508Z,150642.88
2023-10-09T06:43:43.986Z,150664.28
2023-10-09T06:45:45.730Z,150642.88
2023-10-09T06:47:49.445Z,150632.81
2023-10-09T06:49:50.935Z,150661.78
2023-10-09T06:51:52.365Z,150688.25
2023-10-09T06:53:55.077Z,150712.19
2023-10-09T06:55:56.549Z,150713.47
2023-10-09T06:57:57.973Z,150722.25
2023-10-09T06:59:59.550Z,150722.25
2023-10-09T07:02:01.091Z,150744.94
2023-10-09T07:04:02.663Z,150718.53
2023-10-09T07:06:11.108Z,150768.91
2023-10-09T07:08:12.836Z,150781.50
2023-10-09T07:10:14.398Z,150756.31
2023-10-09T07:12:15.990Z,150777.75
2023-10-09T07:14:21.593Z,150849.59
2023-10-09T07:16:23.953Z,150854.66
2023-10-09T07:18:25.539Z,150881.16
2023-10-09T07:20:26.999Z,150738.69
2023-10-09T07:22:28.423Z,150892.47
2023-10-09T07:24:33.737Z,150925.25
2023-10-09T07:26:35.222Z,150936.63
2023-10-09T07:28:36.664Z,150893.75
2023-10-09T07:30:38.137Z,150939.16
2023-10-09T07:32:39.686Z,150984.56
2023-10-09T07:34:41.229Z,150955.53
2023-10-09T07:36:42.730Z,151007.22
2023-10-09T07:38:44.242Z,150980.78
2023-10-09T07:40:47.298Z,151065.31
2023-10-09T07:42:48.947Z,151036.28
2023-10-09T07:44:50.408Z,150971.94
2023-10-09T07:46:51.951Z,150971.94
2023-10-09T07:48:53.965Z,151006.03
2023-10-09T07:50:55.440Z,151019.88
2023-10-09T07:52:58.648Z,151051.41
2023-10-09T07:55:00.147Z,151053.94
2023-10-09T07:57:01.603Z,151074.13
2023-10-09T07:59:03.262Z,151084.22
2023-10-09T08:01:05.201Z,151058.97
2023-10-09T08:03:06.740Z,151081.72
2023-10-09T08:05:08.741Z,151101.94
2023-10-09T08:08:06.088Z,151133.47
2023-10-09T08:09:33.985Z,151180.19
2023-10-09T08:11:35.625Z,151242.03
2023-10-09T08:13:37.215Z,151311.50
2023-10-09T08:15:38.799Z,151226.91
2023-10-09T08:17:40.412Z,151223.09
2023-10-09T08:19:43.062Z,151240.78
2023-10-09T08:21:44.493Z,151279.91
2023-10-09T08:23:46.126Z,151224.38
2023-10-09T08:25:47.629Z,151238.25
2023-10-09T08:27:49.109Z,151252.16
2023-10-09T08:29:50.659Z,151220.56
2023-10-09T08:31:52.081Z,151286.22
2023-10-09T08:35:58.429Z,151292.56
2023-10-09T08:38:03.929Z,151301.38
2023-10-09T08:40:06.118Z,151316.50
2023-10-09T08:42:08.130Z,151339.25
2023-10-09T08:44:13.171Z,151307.69
2023-10-09T08:46:15.797Z,151325.38
2023-10-09T08:48:17.513Z,151370.84
2023-10-09T08:50:19.437Z,151350.63
2023-10-09T08:52:20.999Z,151305.16
2023-10-09T08:54:22.596Z,151316.50
2023-10-09T08:56:24.842Z,151312.75
2023-10-09T08:58:27.252Z,151340.50
2023-10-09T09:00:29.079Z,151402.41
2023-10-09T09:02:30.979Z,151387.25
2023-10-09T09:04:40.208Z,151383.47
2023-10-09T09:06:42.111Z,151437.75
2023-10-09T09:08:44.451Z,151452.94
2023-10-09T09:10:45.938Z,151450.41
2023-10-09T09:12:48.671Z,151450.41
2023-10-09T09:14:50.511Z,151514.84
2023-10-09T09:16:52.023Z,151533.81
2023-10-09T09:18:57.654Z,151555.34
2023-10-09T09:20:59.831Z,151500.91
2023-10-09T09:23:03.153Z,151551.53
2023-10-09T09:25:06.756Z,151514.84
2023-10-09T09:27:08.414Z,151469.34
2023-10-09T09:29:10.008Z,151475.69
2023-10-09T09:31:11.774Z,151500.91
2023-10-09T09:33:20.745Z,151545.16
2023-10-09T09:35:22.195Z,151579.34
2023-10-09T09:37:27.640Z,151575.56
2023-10-09T09:39:38.650Z,151511.06
2023-10-09T09:41:48.212Z,151569.22
2023-10-09T09:43:58.661Z,151567.94
2023-10-09T09:46:02.513Z,151545.16
2023-10-09T09:48:05.188Z,151589.44
2023-10-09T09:50:07.563Z,151612.19
2023-10-09T09:52:10.341Z,151706.97
2023-10-09T09:54:11.865Z,151622.31
2023-10-09T09:56:16.942Z,151604.59
2023-10-09T09:58:19.585Z,151646.31
2023-10-09T10:00:30.670Z,151619.78
2023-10-09T10:02:37.654Z,151651.38
2023-10-09T10:04:41.706Z,151609.66
2023-10-09T10:06:45.498Z,151677.94
2023-10-09T10:08:49.005Z,151638.75
2023-10-09T10:10:51.219Z,151670.31
2023-10-09T10:12:56.261Z,151685.47
2023-10-09T10:15:00.399Z,151650.09
2023-10-09T10:17:07.384Z,151638.75
2023-10-09T10:19:09.073Z,151640.00
2023-10-09T10:21:15.456Z,151636.22
2023-10-09T10:23:18.327Z,151686.75
2023-10-09T10:25:31.959Z,151753.75
2023-10-09T10:27:33.444Z,151779.06
2023-10-09T10:29:35.048Z,151784.13
2023-10-09T10:31:59.572Z,151688.03
2023-10-09T10:34:00.928Z,151733.53
2023-10-09T10:36:02.678Z,151785.41
2023-10-09T10:38:04.178Z,151799.31
2023-10-09T10:40:06.832Z,151820.81
2023-10-09T10:42:08.572Z,151792.97
2023-10-09T10:44:10.038Z,151700.69
2023-10-09T10:46:11.801Z,151672.84
2023-10-09T10:48:13.529Z,151734.81
2023-10-09T10:50:15.124Z,151709.50
2023-10-09T10:52:27.533Z,151657.72
2023-10-09T10:54:29.354Z,151623.53
2023-10-09T10:56:38.965Z,151693.09
2023-10-09T10:58:41.283Z,151637.47
2023-10-09T11:00:43.479Z,151652.63
2023-10-09T11:02:45.391Z,151688.03
2023-10-09T11:04:47.474Z,151662.78
2023-10-09T11:06:52.614Z,151647.56
2023-10-09T11:08:54.052Z,151679.19
2023-10-09T11:11:11.458Z,151713.31
2023-10-09T11:13:21.902Z,151756.31
2023-10-09T11:15:34.284Z,151722.19
2023-10-09T11:17:38.988Z,151790.44
2023-10-09T11:19:41.276Z,151714.59
2023-10-09T11:21:43.051Z,151789.16
2023-10-09T11:23:45.195Z,151767.66
2023-10-09T11:25:48.109Z,151725.94
2023-10-09T11:27:49.940Z,151689.28
2023-10-09T11:29:52.450Z,151808.13
2023-10-09T11:32:07.236Z,151749.97
2023-10-09T11:34:21.312Z,151746.16
2023-10-09T11:36:23.100Z,151758.84
2023-10-09T11:38:25.375Z,151766.44
2023-10-09T11:40:34.650Z,151772.72
2023-10-09T11:42:36.317Z,151781.59
2023-10-09T11:44:40.627Z,151796.75
2023-10-09T11:46:58.507Z,151865.06
2023-10-09T11:49:10.391Z,151892.88
2023-10-09T11:51:14.434Z,151953.63
2023-10-09T11:53:16.269Z,151976.41
2023-10-09T11:55:17.720Z,151968.84
2023-10-09T11:57:19.267Z,151933.34
2023-10-09T11:59:20.899Z,151982.75
2023-10-09T12:01:22.338Z,151985.28
2023-10-09T12:03:25.781Z,152015.63
2023-10-09T12:05:27.368Z,152090.34
2023-10-09T12:07:29.433Z,152054.88
2023-10-09T12:09:31.118Z,151916.91
2023-10-09T12:11:32.678Z,151948.63
2023-10-09T12:13:34.284Z,151927.06
2023-10-09T12:15:35.929Z,151928.31
2023-10-09T12:17:37.462Z,152008.06
2023-10-09T12:19:39.935Z,152047.31
2023-10-09T12:21:41.479Z,152090.34
2023-10-09T12:23:44.912Z,152016.91
2023-10-09T12:25:46.917Z,151978.97
2023-10-09T12:27:48.437Z,151970.13
2023-10-09T12:29:50.622Z,152058.66
2023-10-09T12:31:52.629Z,152091.59
2023-10-09T12:33:54.696Z,152171.34
2023-10-09T12:35:56.731Z,152190.31
2023-10-09T12:37:58.417Z,152183.97
2023-10-09T12:39:59.969Z,152123.22
2023-10-09T12:42:01.736Z,152186.53
2023-10-09T12:44:03.635Z,152263.75
2023-10-09T12:46:09.058Z,152275.16
2023-10-09T12:48:10.661Z,152238.47
2023-10-09T12:50:12.381Z,152287.81
2023-10-09T12:52:14.033Z,152275.16
2023-10-09T12:54:18.140Z,152235.91
2023-10-09T12:56:19.834Z,152138.41
2023-10-09T12:58:21.451Z,152209.31
2023-10-09T13:00:22.886Z,152257.44
2023-10-09T13:02:24.822Z,152266.28
2023-10-09T13:04:26.437Z,152210.59
2023-10-09T13:06:28.645Z,152208.03
2023-10-09T13:08:30.242Z,152114.41
2023-10-09T13:10:31.811Z,152186.53
2023-10-09T13:12:33.266Z,152260.00
2023-10-09T13:14:34.943Z,152329.66
2023-10-09T13:16:36.622Z,152228.31
2023-10-09T13:18:38.661Z,152252.38
2023-10-09T13:20:40.191Z,152211.84
2023-10-09T13:22:42.606Z,152201.69
2023-10-09T13:24:44.122Z,152082.72
2023-10-09T13:26:46.550Z,152040.97
2023-10-09T13:28:50.287Z,151999.19
2023-10-09T13:30:51.736Z,151914.38
2023-10-09T13:32:53.521Z,151961.25
2023-10-09T13:34:55.185Z,152009.34
2023-10-09T13:36:56.693Z,152024.53
2023-10-09T13:39:03.186Z,152019.44
2023-10-09T13:41:04.845Z,151989.09
2023-10-09T13:43:06.298Z,151919.44
2023-10-09T13:45:08.305Z,151990.38
2023-10-09T13:47:10.071Z,152016.91
2023-10-09T13:49:12.601Z,152105.50
2023-10-09T13:51:14.393Z,152090.34
2023-10-09T13:53:16.137Z,151956.19
2023-10-09T13:55:17.576Z,152006.81
2023-10-09T13:57:19.061Z,151963.78
2023-10-09T13:59:24.100Z,151977.69
2023-10-09T14:01:25.604Z,152003.00
2023-10-09T14:03:27.267Z,152001.75
2023-10-09T14:05:29.483Z,151989.09
2023-10-09T14:07:30.956Z,152035.88
2023-10-09T14:09:32.825Z,152003.00
2023-10-09T14:11:35.013Z,151959.97
2023-10-09T14:13:36.498Z,151959.97
2023-10-09T14:15:37.935Z,151973.88
2023-10-09T14:17:39.610Z,152016.91
2023-10-09T14:19:44.822Z,151999.19
2023-10-09T14:21:46.284Z,151903.00
2023-10-09T14:23:47.868Z,151903.00
2023-10-09T14:25:49.345Z,151961.25
2023-10-09T14:27:50.811Z,151978.97
2023-10-09T14:29:53.333Z,152024.53
2023-10-09T14:31:54.829Z,152049.84
2023-10-09T14:33:59.537Z,152043.50
2023-10-09T14:36:01.065Z,152081.44
2023-10-09T14:38:02.578Z,152054.88
2023-10-09T14:40:04.421Z,152094.16
2023-10-09T14:42:06.822Z,152132.09
2023-10-09T14:44:08.312Z,152163.72
2023-10-09T14:46:14.175Z,152196.69
2023-10-09T14:48:18.983Z,152171.34
2023-10-09T14:50:22.312Z,152190.31
2023-10-09T14:52:23.807Z,152165.00
2023-10-09T14:54:27.199Z,152167.53
2023-10-09T14:56:29.978Z,152227.03
2023-10-09T14:58:31.452Z,152161.19
2023-10-09T15:00:32.979Z,152143.47
2023-10-09T15:02:34.815Z,152189.06
2023-10-09T15:04:36.908Z,152175.16
2023-10-09T15:06:38.977Z,152138.41
2023-10-09T15:08:40.413Z,152194.13
2023-10-09T15:10:52.084Z,152201.69
2023-10-09T15:12:53.842Z,152191.59
2023-10-09T15:14:55.282Z,152225.78
2023-10-09T15:16:58.492Z,152166.25
2023-10-09T15:19:00.502Z,152156.16
2023-10-09T15:21:01.949Z,152116.88
2023-10-09T15:23:03.633Z,152113.13
2023-10-09T15:25:05.457Z,152116.88
2023-10-09T15:27:07.062Z,152116.88
2023-10-09T15:29:08.674Z,152134.66
2023-10-09T15:31:10.315Z,152118.16
2023-10-09T15:33:11.940Z,152075.09
2023-10-09T15:35:13.514Z,151992.84
2023-10-09T15:37:15.344Z,152044.75
2023-10-09T15:39:17.516Z,152097.91
2023-10-09T15:41:19.063Z,152090.34
2023-10-09T15:43:20.941Z,152013.16
2023-10-09T15:45:23.448Z,152029.59
2023-10-09T15:47:25.004Z,152011.88
2023-10-09T15:49:30.388Z,151968.84
2023-10-09T15:51:31.842Z,151967.59
2023-10-09T15:53:33.325Z,151909.34
2023-10-09T15:55:35.904Z,151919.44
2023-10-09T15:57:37.412Z,151870.09
2023-10-09T15:59:38.987Z,151878.97
2023-10-09T16:01:40.700Z,151851.13
2023-10-09T16:03:43.455Z,151785.41
2023-10-09T16:05:45.139Z,151790.44
2023-10-09T16:07:46.896Z,151761.38
2023-10-09T16:09:48.382Z,151768.94
2023-10-09T16:11:49.940Z,151725.94
2023-10-09T16:13:52.264Z,151744.94
2023-10-09T16:15:53.744Z,151710.78
2023-10-09T16:17:55.305Z,151728.47
2023-10-09T16:19:56.961Z,151755.03
2023-10-09T16:21:58.434Z,151747.44
2023-10-09T16:23:59.871Z,151642.56
2023-10-09T16:26:01.575Z,151685.47
2023-10-09T16:28:04.076Z,151690.56
2023-10-09T16:30:06.252Z,151669.06
2023-10-09T16:32:08.625Z,151617.25
2023-10-09T16:34:11.398Z,151633.69
2023-10-09T16:36:12.838Z,151576.81
2023-10-09T16:38:14.705Z,151604.59
2023-10-09T16:40:16.990Z,151584.38
2023-10-09T16:42:18.414Z,151547.69
2023-10-09T16:44:20.196Z,151524.94
2023-10-09T16:46:21.642Z,151532.53
2023-10-09T16:48:23.098Z,151511.06
2023-10-09T16:50:24.785Z,151478.22
2023-10-09T16:52:26.269Z,151503.44
2023-10-09T16:54:27.727Z,151495.91
2023-10-09T16:56:29.465Z,151480.72
2023-10-09T16:58:30.885Z,151456.75
2023-10-09T17:00:32.354Z,151485.78
2023-10-09T17:02:36.128Z,151415.06
2023-10-09T17:04:40.191Z,151349.38
2023-10-09T17:06:41.656Z,151422.59
2023-10-09T17:08:43.546Z,151397.34
2023-10-09T17:10:45.492Z,151394.84
2023-10-09T17:12:46.945Z,151406.19
2023-10-09T17:14:48.730Z,151392.31
2023-10-09T17:16:50.421Z,151301.38
2023-10-09T17:18:56.549Z,151367.03
2023-10-09T17:20:59.343Z,151325.38
2023-10-09T17:23:01.880Z,151319.03
2023-10-09T17:25:03.542Z,151322.84
2023-10-09T17:27:05.191Z,151306.44
2023-10-09T17:29:06.813Z,151277.38
2023-10-09T17:31:08.380Z,151269.81
2023-10-09T17:33:10.149Z,151258.44
2023-10-09T17:35:12.473Z,151202.91
2023-10-09T17:37:13.954Z,151185.25
2023-10-09T17:39:15.518Z,151173.84
2023-10-09T17:41:18.140Z,151183.97
2023-10-09T17:43:23.145Z,151152.41
2023-10-09T17:45:25.630Z,151158.72
2023-10-09T17:47:27.514Z,151109.47
2023-10-09T17:49:29.089Z,151040.06
2023-10-09T17:51:30.637Z,151086.81
2023-10-09T17:53:32.157Z,151018.63
2023-10-09T17:55:35.687Z,151053.94
2023-10-09T17:57:39.072Z,151065.31
2023-10-09T17:59:40.625Z,151009.75
2023-10-09T18:01:42.066Z,151024.94
2023-10-09T18:03:43.730Z,151035.00
2023-10-09T18:05:45.332Z,151008.50
2023-10-09T18:07:47.047Z,151046.38
2023-10-09T18:09:48.864Z,150976.97
2023-10-09T18:11:50.426Z,150966.88
2023-10-09T18:13:51.919Z,150989.59
2023-10-09T18:16:04.510Z,150998.44
2023-10-09T18:18:06.463Z,150955.53
2023-10-09T18:20:08.922Z,150973.19
2023-10-09T18:22:10.602Z,150995.91
2023-10-09T18:24:12.573Z,150901.31
2023-10-09T18:26:14.027Z,150945.44
2023-10-09T18:28:15.660Z,150951.75
2023-10-09T18:30:17.479Z,151002.22
2023-10-09T18:32:18.985Z,150946.69
2023-10-09T18:34:22.569Z,150980.78
2023-10-09T18:36:24.569Z,150980.78
2023-10-09T18:38:25.978Z,150994.63
2023-10-09T18:40:27.899Z,150978.25
2023-10-09T18:42:29.698Z,150942.94
2023-10-09T18:44:31.160Z,150990.84
2023-10-09T18:46:32.777Z,150995.91
2023-10-09T18:48:34.594Z,151016.09
2023-10-09T18:50:39.913Z,151038.78
2023-10-09T18:52:41.640Z,151053.94
2023-10-09T18:54:43.527Z,151062.78
2023-10-09T18:56:45.109Z,151060.25
2023-10-09T18:58:46.864Z,151053.94
2023-10-09T19:00:50.852Z,151065.31
2023-10-09T19:02:53.255Z,151036.28
2023-10-09T19:04:54.959Z,151048.88
2023-10-09T19:06:56.686Z,151060.25
2023-10-09T19:08:58.107Z,151053.94
2023-10-09T19:11:01.006Z,151056.47
2023-10-09T19:13:02.613Z,151046.38
2023-10-09T19:15:04.738Z,151060.25
2023-10-09T19:17:06.527Z,151060.25
2023-10-09T19:19:08.098Z,151086.81
2023-10-09T19:21:11.412Z,151079.19
2023-10-09T19:23:13.998Z,151082.97
2023-10-09T19:25:15.451Z,151089.28
2023-10-09T19:27:16.886Z,151113.28
2023-10-09T19:29:18.744Z,151089.28
2023-10-09T19:31:20.431Z,151110.75
2023-10-09T19:33:21.931Z,151093.09
2023-10-09T19:35:24.531Z,151115.81
2023-10-09T19:37:26.223Z,151130.94
2023-10-09T19:39:27.648Z,151161.25
2023-10-09T19:41:29.881Z,151113.28
2023-10-09T19:43:31.325Z,151114.53
2023-10-09T19:45:32.791Z,151176.38
2023-10-09T19:47:34.835Z,151123.41
2023-10-09T19:49:36.719Z,151177.66
2023-10-09T19:51:38.152Z,151200.38
2023-10-09T19:53:40.227Z,151211.75
2023-10-09T19:55:43.918Z,151209.22
2023-10-09T19:57:45.268Z,151235.72
2023-10-09T19:59:47.156Z,151157.47
2023-10-09T20:01:48.632Z,151205.44
2023-10-09T20:03:50.230Z,151168.84
2023-10-09T20:05:52.204Z,151228.16
2023-10-09T20:07:53.650Z,151234.44
2023-10-09T20:09:55.151Z,151216.78
2023-10-09T20:11:57.175Z,151194.03
2023-10-09T20:13:58.659Z,151207.97
2023-10-09T20:16:00.848Z,151242.03
2023-10-09T20:18:02.715Z,151214.25
2023-10-09T20:20:04.519Z,151236.97
2023-10-09T20:22:05.960Z,151229.44
2023-10-09T20:24:07.729Z,151243.28
2023-10-09T20:26:09.869Z,151223.09
2023-10-09T20:28:11.377Z,151234.44
2023-10-09T20:30:13.178Z,151180.19
2023-10-09T20:32:14.736Z,151247.09
2023-10-09T20:34:16.378Z,151201.63
2023-10-09T20:36:18.105Z,151200.38
2023-10-09T20:38:19.618Z,151165.03
2023-10-09T20:40:22.016Z,151212.97
2023-10-09T20:42:23.614Z,151181.44
2023-10-09T20:44:25.075Z,151228.16
2023-10-09T20:46:26.881Z,151167.56
2023-10-09T20:48:28.328Z,151170.09
2023-10-09T20:50:29.862Z,151202.91
2023-10-09T20:52:31.419Z,151152.41
2023-10-09T20:54:33.041Z,151187.78
2023-10-09T20:56:34.513Z,151160.00
2023-10-09T20:58:36.213Z,151110.75
2023-10-09T21:00:37.787Z,151110.75
2023-10-09T21:02:42.878Z,151104.47
2023-10-09T21:04:44.634Z,151047.66
2023-10-09T21:06:46.146Z,151018.63
2023-10-09T21:08:48.629Z,151047.66
2023-10-09T21:10:50.183Z,150989.59
2023-10-09T21:12:52.153Z,151026.19
2023-10-09T21:14:53.632Z,151029.94
2023-10-09T21:16:55.308Z,151058.97
2023-10-09T21:18:57.157Z,151041.31
2023-10-09T21:21:00.085Z,151008.50
2023-10-09T21:23:02.075Z,150988.31
2023-10-09T21:25:05.515Z,150987.06
2023-10-09T21:27:06.961Z,150980.78
2023-10-09T21:29:08.707Z,151031.22
2023-10-09T21:31:10.362Z,151082.97
2023-10-09T21:33:11.885Z,151052.66
2023-10-09T21:35:17.823Z,151115.81
2023-10-09T21:37:19.939Z,151124.66
2023-10-09T21:39:21.408Z,151072.84
2023-10-09T21:41:23.412Z,151144.84
2023-10-09T21:43:25.048Z,151160.00
2023-10-09T21:45:27.826Z,151157.47
2023-10-09T21:47:29.605Z,151166.31
2023-10-09T21:49:31.199Z,151183.97
2023-10-09T21:51:32.676Z,151158.72
2023-10-09T21:53:34.586Z,151138.53
2023-10-09T21:55:36.757Z,151167.56
2023-10-09T21:57:38.507Z,151192.78
2023-10-09T21:59:40.099Z,151207.97
2023-10-09T22:01:41.769Z,151138.53
2023-10-09T22:03:43.419Z,151148.66
2023-10-09T22:05:45.151Z,151187.78
2023-10-09T22:07:46.865Z,151178.91
2023-10-09T22:09:48.834Z,151161.25
2023-10-09T22:11:50.358Z,151158.72
2023-10-09T22:13:52.019Z,151170.09
2023-10-09T22:15:53.530Z,151165.03
2023-10-09T22:17:55.148Z,151134.72
2023-10-09T22:19:56.966Z,151136.00
2023-10-09T22:21:58.500Z,151128.47
2023-10-09T22:24:00.172Z,151072.84
2023-10-09T22:26:02.199Z,151085.50
2023-10-09T22:28:04.179Z,151099.41
2023-10-09T22:30:06.417Z,151081.72
2023-10-09T22:32:08.505Z,151066.56
2023-10-09T22:34:09.980Z,151080.44
2023-10-09T22:36:14.520Z,151062.78
2023-10-09T22:38:16.166Z,151081.72
2023-10-09T22:40:17.676Z,151058.97
2023-10-09T22:42:19.276Z,151028.69
2023-10-09T22:44:20.824Z,151013.56
2023-10-09T22:46:22.321Z,151077.91
2023-10-09T22:48:24.026Z,151040.06
2023-10-09T22:50:26.602Z,151009.75
2023-10-09T22:52:28.128Z,151004.75
2023-10-09T22:54:29.606Z,150983.31
2023-10-09T22:56:31.271Z,150965.66
2023-10-09T22:58:34.145Z,151006.03
2023-10-09T23:00:35.585Z,150954.28
2023-10-09T23:02:37.589Z,150913.91
2023-10-09T23:04:39.266Z,150908.84
2023-10-09T23:06:40.784Z,150884.88
2023-10-09T23:08:42.391Z,150816.84
2023-10-09T23:10:45.329Z,150853.38
2023-10-09T23:12:46.758Z,150849.59
2023-10-09T23:14:49.670Z,150826.91
2023-10-09T23:16:51.992Z,150819.34
2023-10-09T23:18:53.533Z,150802.94